createdAt,value
2023-05-10T00:01:41.592Z,2.60
2023-05-10T00:04:10.003Z,4.70
2023-05-10T00:06:38.563Z,4.05
2023-05-10T00:09:07.119Z,2.20
2023-05-10T00:11:36.777Z,3.10
2023-05-10T00:14:05.567Z,2.65
2023-05-10T00:16:33.827Z,2.75
2023-05-10T00:19:02.112Z,3.67
2023-05-10T00:21:30.309Z,4.10
2023-05-10T00:23:58.506Z,4.10
2023-05-10T00:26:26.908Z,4.63
2023-05-10T00:28:59.558Z,3.40
2023-05-10T00:31:27.864Z,3.30
2023-05-10T00:33:56.778Z,3.40
2023-05-10T00:36:25.608Z,3.90
2023-05-10T00:38:53.853Z,3.80
2023-05-10T00:41:22.023Z,3.03
2023-05-10T00:43:50.343Z,3.33
2023-05-10T00:46:20.342Z,3.88
2023-05-10T00:48:48.703Z,4.13
2023-05-10T00:51:17.054Z,3.08
2023-05-10T00:53:47.488Z,2.22
2023-05-10T00:56:15.693Z,3.75
2023-05-10T00:58:44.215Z,4.18
2023-05-10T01:01:13.863Z,3.65
2023-05-10T01:03:43.754Z,2.83
2023-05-10T01:06:12.672Z,2.97
2023-05-10T01:08:41.319Z,2.63
2023-05-10T01:11:09.584Z,2.63
2023-05-10T01:13:40.319Z,2.70
2023-05-10T01:16:09.648Z,2.63
2023-05-10T01:18:40.764Z,2.90
2023-05-10T01:21:24.664Z,2.30
2023-05-10T01:24:24.661Z,2.70
2023-05-10T01:27:20.836Z,3.60
2023-05-10T01:30:28.186Z,2.85
2023-05-10T01:33:02.666Z,4.45
2023-05-10T01:35:40.138Z,3.60
2023-05-10T01:38:14.829Z,7.78
2023-05-10T01:40:50.625Z,3.63
2023-05-10T01:43:25.175Z,4.63
2023-05-10T01:46:05.566Z,4.00
2023-05-10T01:48:35.607Z,3.83
2023-05-10T01:51:04.579Z,4.30
2023-05-10T01:53:34.312Z,5.38
2023-05-10T01:56:04.153Z,4.00
2023-05-10T01:58:34.730Z,4.53
2023-05-10T02:01:07.027Z,5.35
2023-05-10T02:03:39.321Z,5.38
2023-05-10T02:06:08.865Z,4.55
2023-05-10T02:08:38.542Z,5.05
2023-05-10T02:11:07.281Z,5.90
2023-05-10T02:13:37.987Z,6.97
2023-05-10T02:16:08.311Z,5.65
2023-05-10T02:18:38.598Z,5.32
2023-05-10T02:21:07.156Z,5.65
2023-05-10T02:23:36.440Z,6.68
2023-05-10T02:26:06.772Z,7.03
2023-05-10T02:28:36.944Z,7.40
2023-05-10T02:31:07.178Z,10.25
2023-05-10T02:33:37.803Z,7.22
2023-05-10T02:36:06.466Z,6.30
2023-05-10T02:38:35.971Z,6.80
2023-05-10T02:41:06.463Z,6.55
2023-05-10T02:43:36.551Z,9.27
2023-05-10T02:46:05.153Z,7.57
2023-05-10T02:48:33.895Z,8.07
2023-05-10T02:51:09.019Z,8.50
2023-05-10T02:53:41.003Z,10.25
2023-05-10T02:56:16.376Z,8.65
2023-05-10T02:58:44.702Z,8.90
2023-05-10T03:01:13.495Z,9.45
2023-05-10T03:03:41.624Z,9.48
2023-05-10T03:06:11.569Z,10.15
2023-05-10T03:08:40.047Z,10.50
2023-05-10T03:11:32.123Z,10.07
2023-05-10T03:14:15.149Z,10.07
2023-05-10T03:16:48.609Z,17.45
2023-05-10T03:19:24.488Z,11.82
2023-05-10T03:21:57.496Z,13.30
2023-05-10T03:24:29.997Z,12.40
2023-05-10T03:27:03.866Z,10.65
2023-05-10T03:29:33.240Z,12.95
2023-05-10T03:32:01.609Z,12.25
2023-05-10T03:34:33.196Z,12.80
2023-05-10T03:37:02.882Z,12.50
2023-05-10T03:39:33.307Z,13.82
2023-05-10T03:42:03.017Z,11.77
2023-05-10T03:44:32.285Z,13.75
2023-05-10T03:47:00.692Z,13.60
2023-05-10T03:49:29.054Z,12.82
2023-05-10T03:51:57.425Z,11.85
2023-05-10T03:54:27.179Z,10.60
2023-05-10T03:56:55.359Z,11.27
2023-05-10T03:59:24.095Z,11.95
2023-05-10T04:01:53.542Z,10.43
2023-05-10T04:04:22.382Z,10.50
2023-05-10T04:10:51.895Z,6.22
2023-05-10T04:13:50.491Z,4.40
2023-05-10T04:16:18.851Z,4.95
2023-05-10T04:18:49.722Z,3.60
2023-05-10T04:21:24.779Z,3.00
2023-05-10T04:23:53.060Z,5.38
2023-05-10T04:26:21.570Z,3.10
2023-05-10T04:28:51.091Z,3.20
2023-05-10T04:31:19.302Z,3.40
2023-05-10T04:33:47.617Z,6.82
2023-05-10T04:36:16.074Z,3.95
2023-05-10T04:38:45.282Z,4.57
2023-05-10T04:41:13.511Z,6.68
2023-05-10T04:43:41.739Z,5.40
2023-05-10T04:46:11.423Z,4.95
2023-05-10T04:48:39.648Z,5.15
2023-05-10T04:51:07.979Z,6.28
2023-05-10T04:53:36.150Z,5.53
2023-05-10T04:56:04.558Z,5.25
2023-05-10T04:58:33.026Z,7.85
2023-05-10T05:01:08.117Z,5.93
2023-05-10T05:03:38.295Z,6.53
2023-05-10T05:06:07.015Z,6.80
2023-05-10T05:08:35.236Z,6.93
2023-05-10T05:11:03.408Z,6.78
2023-05-10T05:13:31.915Z,5.57
2023-05-10T05:16:03.170Z,6.85
2023-05-10T05:18:31.726Z,5.70
2023-05-10T05:21:01.603Z,6.45
2023-05-10T05:23:29.897Z,6.25
2023-05-10T05:25:58.072Z,6.50
2023-05-10T05:28:26.253Z,6.55
2023-05-10T05:30:54.375Z,6.53
2023-05-10T05:33:23.219Z,7.07
2023-05-10T05:35:51.805Z,9.20
2023-05-10T05:38:21.412Z,7.78
2023-05-10T05:40:49.618Z,8.80
2023-05-10T05:43:18.092Z,6.75
2023-05-10T05:45:46.322Z,10.15
2023-05-10T05:48:14.505Z,6.95
2023-05-10T05:50:42.666Z,7.80
2023-05-10T05:53:11.303Z,8.23
2023-05-10T05:55:41.287Z,7.47
2023-05-10T05:58:09.452Z,7.47
2023-05-10T06:00:37.580Z,7.88
2023-05-10T06:03:05.885Z,9.90
2023-05-10T06:05:34.368Z,7.70
2023-05-10T06:08:02.557Z,8.00
2023-05-10T06:10:31.465Z,7.55
2023-05-10T06:13:01.189Z,8.15
2023-05-10T06:15:29.686Z,9.80
2023-05-10T06:17:57.938Z,9.85
2023-05-10T06:20:26.167Z,9.25
2023-05-10T06:22:54.402Z,8.18
2023-05-10T06:25:23.073Z,6.88
2023-05-10T06:27:53.629Z,6.55
2023-05-10T06:30:28.174Z,7.80
2023-05-10T06:32:57.257Z,6.78
2023-05-10T06:35:25.514Z,5.53
2023-05-10T06:37:53.730Z,9.63
2023-05-10T06:40:22.164Z,6.90
2023-05-10T06:42:50.801Z,6.43
2023-05-10T06:45:19.806Z,8.13
2023-05-10T06:47:49.691Z,5.72
2023-05-10T06:50:18.003Z,7.90
2023-05-10T06:52:46.756Z,5.90
2023-05-10T06:55:15.208Z,6.50
2023-05-10T06:57:43.900Z,9.77
2023-05-10T07:00:12.676Z,8.52
2023-05-10T07:02:41.026Z,7.63
2023-05-10T07:05:11.605Z,7.90
2023-05-10T07:07:39.818Z,6.72
2023-05-10T07:10:09.527Z,7.78
2023-05-10T07:12:37.839Z,7.18
2023-05-10T07:15:07.115Z,8.02
2023-05-10T07:17:35.680Z,7.75
2023-05-10T07:20:04.875Z,8.02
2023-05-10T07:22:34.578Z,8.50
2023-05-10T07:25:03.365Z,8.18
2023-05-10T07:27:32.453Z,8.68
2023-05-10T07:30:01.612Z,8.65
2023-05-10T07:32:30.348Z,7.30
2023-05-10T07:34:58.659Z,6.88
2023-05-10T07:37:26.990Z,9.18
2023-05-10T07:39:57.061Z,11.88
2023-05-10T07:42:25.173Z,17.40
2023-05-10T07:44:53.369Z,19.98
2023-05-10T07:47:21.533Z,21.17
2023-05-10T07:49:49.842Z,22.38
2023-05-10T07:52:18.065Z,24.23
2023-05-10T07:54:46.619Z,24.73
2023-05-10T07:57:18.550Z,26.35
2023-05-10T07:59:46.866Z,26.67
2023-05-10T08:02:15.166Z,28.60
2023-05-10T08:04:43.508Z,29.67
2023-05-10T08:07:11.880Z,25.40
2023-05-10T08:09:40.033Z,27.70
2023-05-10T08:12:32.758Z,29.48
2023-05-10T08:15:01.302Z,26.88
2023-05-10T08:17:29.525Z,32.20
2023-05-10T08:19:57.863Z,25.25
2023-05-10T08:22:26.207Z,27.95
2023-05-10T08:24:54.591Z,28.27
2023-05-10T08:27:22.834Z,27.83
2023-05-10T08:29:52.453Z,25.88
2023-05-10T08:32:21.249Z,23.58
2023-05-10T08:34:49.406Z,22.42
2023-05-10T08:37:17.732Z,22.73
2023-05-10T08:39:46.754Z,22.85
2023-05-10T08:42:18.232Z,24.45
2023-05-10T08:44:49.442Z,23.27
2023-05-10T08:47:20.676Z,23.35
2023-05-10T08:49:51.959Z,22.98
2023-05-10T08:52:21.065Z,23.13
2023-05-10T08:54:50.300Z,19.70
2023-05-10T08:57:18.472Z,21.27
2023-05-10T08:59:46.885Z,19.17
2023-05-10T09:02:18.583Z,19.50
2023-05-10T09:04:49.966Z,18.40
2023-05-10T09:07:19.006Z,18.70
2023-05-10T09:09:48.547Z,20.58
2023-05-10T09:12:17.420Z,18.15
2023-05-10T09:14:47.517Z,17.38
2023-05-10T09:17:16.398Z,15.60
2023-05-10T09:19:44.783Z,15.73
2023-05-10T09:22:14.678Z,16.30
2023-05-10T09:24:46.245Z,14.65
2023-05-10T09:27:14.552Z,16.77
2023-05-10T09:29:44.734Z,18.60
2023-05-10T09:32:13.865Z,13.68
2023-05-10T09:34:43.257Z,16.23
2023-05-10T09:37:11.558Z,14.20
2023-05-10T09:39:42.331Z,13.93
2023-05-10T09:42:11.363Z,13.70
2023-05-10T09:44:40.390Z,15.85
2023-05-10T09:47:08.623Z,13.18
2023-05-10T09:49:36.868Z,13.13
2023-05-10T09:52:06.592Z,12.18
2023-05-10T09:54:35.841Z,11.40
2023-05-10T09:57:06.000Z,11.13
2023-05-10T09:59:36.439Z,13.55
2023-05-10T10:02:05.165Z,13.52
2023-05-10T10:04:33.798Z,10.13
2023-05-10T10:07:04.775Z,10.98
2023-05-10T10:09:33.725Z,13.43
2023-05-10T10:12:02.925Z,9.27
2023-05-10T10:14:34.884Z,9.45
2023-05-10T10:19:36.208Z,9.32
2023-05-10T10:22:05.106Z,5.80
2023-05-10T10:24:33.504Z,9.77
2023-05-10T10:27:11.498Z,6.75
2023-05-10T10:29:49.641Z,6.30
2023-05-10T10:32:28.000Z,6.38
2023-05-10T10:34:57.992Z,5.63
2023-05-10T10:37:43.155Z,4.75
2023-05-10T10:40:33.695Z,3.58
2023-05-10T10:43:23.889Z,4.13
2023-05-10T10:46:18.277Z,4.57
2023-05-10T10:48:52.360Z,3.55
2023-05-10T10:51:20.604Z,4.68
2023-05-10T10:53:50.391Z,3.78
2023-05-10T10:56:25.209Z,3.58
2023-05-10T10:58:54.678Z,3.30
2023-05-10T11:01:24.591Z,6.38
2023-05-10T11:04:21.853Z,3.20
2023-05-10T11:06:50.073Z,6.78
2023-05-10T11:09:18.942Z,3.97
2023-05-10T11:11:56.198Z,5.40
2023-05-10T11:14:24.998Z,4.38
2023-05-10T11:16:54.675Z,10.50
2023-05-10T11:19:22.865Z,21.13
2023-05-10T11:21:52.338Z,7.85
2023-05-10T11:24:21.929Z,6.45
2023-05-10T11:26:52.801Z,3.85
2023-05-10T11:29:21.428Z,3.92
2023-05-10T11:31:50.481Z,4.43
2023-05-10T11:34:31.213Z,5.38
2023-05-10T11:37:00.166Z,5.80
2023-05-10T11:39:29.608Z,7.70
2023-05-10T11:41:58.201Z,5.60
2023-05-10T11:44:32.077Z,4.00
2023-05-10T11:47:01.708Z,1.98
2023-05-10T11:49:31.707Z,6.55
2023-05-10T11:52:07.098Z,2.08
2023-05-10T11:54:36.238Z,3.25
2023-05-10T11:57:04.721Z,2.10
2023-05-10T11:59:32.885Z,2.47
2023-05-10T12:02:01.209Z,3.28
2023-05-10T12:04:31.218Z,3.65
2023-05-10T12:06:59.817Z,3.50
2023-05-10T12:09:42.543Z,2.53
2023-05-10T12:12:12.589Z,4.90
2023-05-10T12:14:40.751Z,3.30
2023-05-10T12:17:13.856Z,3.90
2023-05-10T12:19:44.782Z,3.35
2023-05-10T12:22:13.159Z,5.25
2023-05-10T12:24:41.541Z,3.60
2023-05-10T12:27:10.849Z,4.88
2023-05-10T12:29:42.226Z,3.30
2023-05-10T12:32:11.263Z,2.75
2023-05-10T12:34:39.538Z,6.03
2023-05-10T12:37:09.405Z,3.35
2023-05-10T12:39:45.189Z,3.10
2023-05-10T12:42:13.711Z,7.57
2023-05-10T12:44:42.404Z,2.83
2023-05-10T12:47:10.647Z,3.38
2023-05-10T12:49:39.569Z,3.83
2023-05-10T12:52:09.129Z,4.35
2023-05-10T12:54:37.293Z,4.20
2023-05-10T12:57:05.820Z,4.70
2023-05-10T12:59:35.922Z,4.38
2023-05-10T13:02:05.638Z,4.25
2023-05-10T13:04:33.952Z,4.68
2023-05-10T13:07:02.122Z,4.10
2023-05-10T13:09:31.794Z,4.80
2023-05-10T13:12:00.517Z,4.15
2023-05-10T13:14:29.030Z,4.18
2023-05-10T13:16:57.262Z,4.40
2023-05-10T13:19:25.438Z,4.70
2023-05-10T13:21:53.941Z,5.80
2023-05-10T13:24:22.714Z,4.68
2023-05-10T13:27:09.889Z,4.88
2023-05-10T13:29:38.212Z,5.28
2023-05-10T13:32:07.211Z,5.20
2023-05-10T13:34:36.688Z,5.82
2023-05-10T13:37:04.968Z,6.38
2023-05-10T13:39:35.328Z,7.47
2023-05-10T13:42:04.986Z,6.82
2023-05-10T13:44:35.055Z,8.52
2023-05-10T13:47:03.398Z,10.02
2023-05-10T13:49:32.042Z,11.85
2023-05-10T13:52:00.208Z,10.45
2023-05-10T13:54:30.429Z,9.90
2023-05-10T13:56:58.602Z,9.60
2023-05-10T13:59:28.128Z,11.05
2023-05-10T14:01:56.432Z,10.82
2023-05-10T14:04:25.602Z,10.55
2023-05-10T14:06:54.532Z,10.45
2023-05-10T14:09:22.723Z,10.18
2023-05-10T14:11:50.919Z,10.43
2023-05-10T14:14:19.288Z,11.07
2023-05-10T14:16:48.978Z,11.57
2023-05-10T14:19:17.553Z,9.45
2023-05-10T14:21:45.728Z,10.32
2023-05-10T14:24:13.911Z,9.95
2023-05-10T14:26:42.703Z,9.95
2023-05-10T14:29:12.469Z,10.10
2023-05-10T14:31:41.028Z,8.63
2023-05-10T14:34:10.643Z,9.60
2023-05-10T14:36:38.809Z,8.77
2023-05-10T14:39:07.607Z,9.05
2023-05-10T14:41:36.595Z,9.57
2023-05-10T14:44:05.377Z,9.10
2023-05-10T14:46:35.488Z,7.93
2023-05-10T14:49:03.997Z,8.32
2023-05-10T14:51:33.853Z,7.38
2023-05-10T14:54:02.423Z,6.45
2023-05-10T14:56:30.653Z,8.02
2023-05-10T14:58:58.954Z,12.27
2023-05-10T15:01:27.424Z,7.45
2023-05-10T15:03:56.523Z,6.97
2023-05-10T15:06:26.611Z,6.70
2023-05-10T15:08:56.148Z,7.22
2023-05-10T15:11:24.404Z,7.13
2023-05-10T15:13:52.606Z,9.13
2023-05-10T15:16:21.288Z,7.90
2023-05-10T15:18:50.049Z,9.77
2023-05-10T15:21:18.299Z,10.07
2023-05-10T15:23:47.419Z,11.00
2023-05-10T15:26:17.265Z,18.50
2023-05-10T15:28:45.432Z,20.77
2023-05-10T15:31:13.667Z,17.13
2023-05-10T15:33:42.189Z,11.95
2023-05-10T15:36:10.503Z,14.20
2023-05-10T15:38:38.987Z,12.73
2023-05-10T15:41:07.642Z,16.98
2023-05-10T15:43:37.310Z,13.52
2023-05-10T15:46:06.951Z,13.55
2023-05-10T15:48:35.337Z,17.95
2023-05-10T15:51:03.553Z,13.75
2023-05-10T15:53:31.704Z,13.63
2023-05-10T15:55:59.996Z,14.02
2023-05-10T15:58:28.215Z,13.50
2023-05-10T16:00:57.917Z,12.55
2023-05-10T16:03:26.242Z,11.07
2023-05-10T16:05:54.797Z,12.00
2023-05-10T16:08:22.923Z,14.20
2023-05-10T16:10:52.467Z,14.68
2023-05-10T16:13:20.596Z,8.95
2023-05-10T16:15:48.762Z,12.68
2023-05-10T16:18:18.655Z,9.38
2023-05-10T16:20:46.913Z,11.65
2023-05-10T16:23:15.264Z,9.98
2023-05-10T16:25:43.519Z,9.32
2023-05-10T16:28:11.816Z,8.40
2023-05-10T16:30:39.991Z,9.10
2023-05-10T16:33:08.212Z,11.95
2023-05-10T16:35:37.709Z,10.30
2023-05-10T16:38:05.942Z,10.88
2023-05-10T16:40:34.133Z,8.38
2023-05-10T16:43:02.334Z,8.77
2023-05-10T16:45:32.481Z,6.90
2023-05-10T16:48:00.822Z,8.70
2023-05-10T16:50:29.031Z,7.88
2023-05-10T16:52:58.610Z,7.88
2023-05-10T16:55:26.965Z,11.35
2023-05-10T16:57:59.647Z,6.47
2023-05-10T17:00:28.264Z,7.25
2023-05-10T17:02:57.036Z,5.80
2023-05-10T17:05:25.347Z,6.20
2023-05-10T17:07:53.566Z,7.40
2023-05-10T17:10:23.259Z,6.53
2023-05-10T17:12:51.483Z,5.57
2023-05-10T17:15:20.675Z,6.00
2023-05-10T17:17:49.234Z,6.30
2023-05-10T17:20:17.573Z,5.35
2023-05-10T17:22:45.773Z,7.30
2023-05-10T17:25:13.970Z,8.70
2023-05-10T17:27:43.481Z,4.85
2023-05-10T17:30:12.769Z,6.68
2023-05-10T17:32:41.240Z,6.15
2023-05-10T17:35:09.959Z,6.63
2023-05-10T17:37:38.156Z,6.20
2023-05-10T17:40:07.845Z,5.78
2023-05-10T17:42:35.997Z,7.13
2023-05-10T17:45:05.957Z,8.38
2023-05-10T17:47:34.478Z,6.80
2023-05-10T17:50:02.742Z,7.72
2023-05-10T17:52:33.469Z,8.48
2023-05-10T17:55:02.445Z,5.63
2023-05-10T17:57:31.676Z,7.13
2023-05-10T17:59:59.917Z,7.93
2023-05-10T18:02:29.757Z,7.70
2023-05-10T18:05:01.224Z,6.80
2023-05-10T18:07:30.019Z,6.75
2023-05-10T18:09:58.234Z,7.03
2023-05-10T18:12:26.806Z,6.63
2023-05-10T18:14:54.940Z,6.55
2023-05-10T18:17:23.137Z,7.15
2023-05-10T18:19:53.519Z,8.27
2023-05-10T18:22:21.703Z,6.82
2023-05-10T18:24:49.793Z,7.80
2023-05-10T18:27:17.977Z,8.82
2023-05-10T18:29:46.285Z,8.35
2023-05-10T18:32:14.372Z,7.22
2023-05-10T18:34:42.544Z,6.35
2023-05-10T18:37:12.266Z,6.28
2023-05-10T18:39:40.783Z,8.15
2023-05-10T18:42:09.675Z,6.60
2023-05-10T18:44:37.854Z,7.13
2023-05-10T18:47:07.074Z,6.13
2023-05-10T18:49:35.223Z,7.22
2023-05-10T18:52:03.445Z,9.85
2023-05-10T18:54:32.932Z,7.60
2023-05-10T18:57:01.104Z,5.97
2023-05-10T18:59:29.200Z,6.88
2023-05-10T19:01:57.835Z,7.88
2023-05-10T19:04:27.215Z,8.13
2023-05-10T19:06:56.018Z,7.30
2023-05-10T19:09:24.468Z,9.95
2023-05-10T19:11:53.976Z,18.75
2023-05-10T19:14:22.427Z,7.82
2023-05-10T19:16:52.074Z,8.65
2023-05-10T19:19:21.248Z,9.70
2023-05-10T19:21:49.596Z,11.15
2023-05-10T19:24:21.737Z,6.55
2023-05-10T19:26:50.045Z,8.18
2023-05-10T19:29:19.689Z,5.97
2023-05-10T19:31:48.810Z,10.98
2023-05-10T19:34:17.328Z,11.43
2023-05-10T19:36:46.043Z,8.20
2023-05-10T19:39:14.299Z,10.07
2023-05-10T19:41:42.721Z,6.80
2023-05-10T19:44:11.255Z,7.88
2023-05-10T19:46:40.855Z,10.65
2023-05-10T19:49:09.208Z,8.68
2023-05-10T19:51:37.415Z,10.50
2023-05-10T19:54:05.595Z,9.77
2023-05-10T19:56:33.781Z,10.48
2023-05-10T19:59:03.267Z,6.78
2023-05-10T20:01:32.764Z,4.55
2023-05-10T20:04:02.554Z,6.80
2023-05-10T20:06:31.649Z,5.35
2023-05-10T20:08:59.805Z,10.38
2023-05-10T20:11:28.023Z,8.73
2023-05-10T20:13:56.427Z,8.52
2023-05-10T20:16:26.782Z,6.82
2023-05-10T20:18:55.470Z,5.50
2023-05-10T20:21:26.778Z,7.43
2023-05-10T20:23:55.117Z,6.75
2023-05-10T20:26:23.321Z,9.75
2023-05-10T20:28:52.370Z,11.82
2023-05-10T20:31:20.698Z,7.35
2023-05-10T20:33:49.059Z,7.82
2023-05-10T20:36:17.278Z,11.65
2023-05-10T20:38:46.840Z,8.68
2023-05-10T20:41:15.046Z,11.23
2023-05-10T20:43:43.433Z,12.05
2023-05-10T20:46:12.297Z,8.75
2023-05-10T20:48:40.443Z,10.77
2023-05-10T20:51:08.569Z,12.60
2023-05-10T20:53:36.715Z,12.65
2023-05-10T20:56:06.553Z,9.77
2023-05-10T20:58:35.953Z,10.30
2023-05-10T21:01:04.309Z,11.38
2023-05-10T21:03:32.938Z,11.10
2023-05-10T21:06:01.080Z,12.40
2023-05-10T21:08:29.222Z,9.18
2023-05-10T21:10:57.498Z,10.43
2023-05-10T21:13:27.379Z,12.05
2023-05-10T21:15:55.643Z,11.75
2023-05-10T21:18:23.830Z,8.82
2023-05-10T21:20:52.064Z,9.05
2023-05-10T21:23:20.180Z,11.45
2023-05-10T21:25:48.379Z,11.60
2023-05-10T21:28:16.566Z,12.35
2023-05-10T21:30:46.504Z,8.77
2023-05-10T21:33:14.712Z,10.82
2023-05-10T21:35:43.188Z,10.07
2023-05-10T21:38:12.056Z,11.07
2023-05-10T21:40:40.851Z,11.45
2023-05-10T21:43:09.605Z,12.15
2023-05-10T21:45:37.960Z,28.52
2023-05-10T21:48:07.722Z,15.13
2023-05-10T21:50:35.933Z,12.68
2023-05-10T21:53:04.127Z,12.88
2023-05-10T21:55:32.533Z,14.45
2023-05-10T21:58:00.630Z,12.13
2023-05-10T22:00:28.793Z,12.75
2023-05-10T22:02:56.987Z,22.00
2023-05-10T22:05:26.546Z,27.05
2023-05-10T22:07:55.047Z,21.85
2023-05-10T22:10:23.189Z,14.65
2023-05-10T22:12:51.692Z,38.60
2023-05-10T22:15:20.083Z,15.88
2023-05-10T22:17:48.276Z,19.58
2023-05-10T22:20:16.928Z,18.23
2023-05-10T22:22:46.636Z,22.83
2023-05-10T22:25:14.928Z,16.00
2023-05-10T22:27:43.046Z,15.18
2023-05-10T22:30:12.074Z,17.67
2023-05-10T22:32:40.248Z,19.42
2023-05-10T22:35:09.795Z,28.13
2023-05-10T22:37:37.914Z,13.80
2023-05-10T22:40:08.976Z,16.48
2023-05-10T22:42:37.107Z,15.73
2023-05-10T22:45:06.141Z,14.85
2023-05-10T22:47:34.481Z,15.27
2023-05-10T22:50:04.106Z,14.88
2023-05-10T22:52:33.643Z,14.40
2023-05-10T22:55:01.951Z,29.83
2023-05-10T22:57:32.417Z,20.80
2023-05-10T23:00:00.807Z,25.48
2023-05-10T23:02:29.025Z,20.00
2023-05-10T23:04:57.651Z,40.20
2023-05-10T23:07:26.413Z,25.60
2023-05-10T23:09:54.546Z,36.00
2023-05-10T23:12:22.684Z,126.07
2023-05-10T23:14:52.192Z,49.72
2023-05-10T23:17:20.506Z,32.33
2023-05-10T23:19:48.675Z,40.08
2023-05-10T23:22:17.016Z,17.40
2023-05-10T23:24:45.139Z,22.88
2023-05-10T23:27:13.604Z,68.60
2023-05-10T23:29:41.777Z,19.13
2023-05-10T23:32:11.485Z,24.70
2023-05-10T23:34:39.630Z,45.47
2023-05-10T23:37:07.743Z,68.63
2023-05-10T23:39:36.373Z,72.38
2023-05-10T23:42:04.726Z,78.45
2023-05-10T23:44:32.882Z,46.88
2023-05-10T23:47:01.853Z,32.55
2023-05-10T23:49:31.329Z,24.95
2023-05-10T23:51:59.493Z,23.77
2023-05-10T23:54:28.041Z,55.10
2023-05-10T23:56:56.182Z,31.90
2023-05-10T23:59:24.694Z,22.25
